WUK7RW EGGW-LEBB
Flight info
| Callsign | WUK7RW |
|---|---|
| Flight time | 1h 38m |
| Altitude | 31000 |
| Route | RODNI N27 ICTAM Q63 CPT Y321 PEPIS Q41 SAM M195 IBNID/N0424F330 M195 MARUK N621 LELNA DCT NOVAN DCT DELOG N75 DOSUL |
| Aircraft | A21N/M-SDE1E2E3FGIJ1J4RWXY/LB1 |
Departure
| Time | 2026-04-30 10:25 |
|---|---|
| Airport | London Luton Airport (EGGW) |
Arrival
| Time | 2026-04-30 12:03 |
|---|---|
| Airport | Bilbao Airport (LEBB) |
| Time | Latitude | Longitude | Altitude | Speed | Heading |
|---|---|---|---|---|---|
| 2026-04-30 09:39 | 51.87889 | -0.37922 | 529 ft | 0 kts | 73° |
| 2026-04-30 10:09 | 51.87887 | -0.37930 | 529 ft | 3 kts | 73° |
| 2026-04-30 10:09 | 51.87879 | -0.37971 | 529 ft | 4 kts | 72° |
| 2026-04-30 10:09 | 51.87878 | -0.38004 | 529 ft | 4 kts | 133° |
| 2026-04-30 10:10 | 51.87893 | -0.38015 | 529 ft | 3 kts | 174° |
| 2026-04-30 10:10 | 51.87911 | -0.38018 | 529 ft | 0 kts | 174° |
| 2026-04-30 10:17 | 51.87871 | -0.38006 | 529 ft | 5 kts | 161° |
| 2026-04-30 10:17 | 51.87798 | -0.37904 | 529 ft | 10 kts | 115° |
| 2026-04-30 10:17 | 51.87764 | -0.37794 | 529 ft | 12 kts | 114° |
| 2026-04-30 10:18 | 51.87726 | -0.37662 | 525 ft | 14 kts | 115° |
| 2026-04-30 10:18 | 51.87679 | -0.37514 | 526 ft | 16 kts | 131° |
| 2026-04-30 10:18 | 51.87571 | -0.37454 | 527 ft | 18 kts | 193° |
| 2026-04-30 10:19 | 51.87454 | -0.37833 | 528 ft | 22 kts | 253° |
| 2026-04-30 10:19 | 51.87400 | -0.38032 | 529 ft | 19 kts | 216° |
| 2026-04-30 10:19 | 51.87363 | -0.38071 | 528 ft | 0 kts | 209° |
| 2026-04-30 10:24 | 51.87351 | -0.38083 | 528 ft | 11 kts | 207° |
| 2026-04-30 10:24 | 51.87271 | -0.38096 | 528 ft | 14 kts | 140° |
| 2026-04-30 10:24 | 51.87273 | -0.37937 | 530 ft | 17 kts | 71° |
| 2026-04-30 10:24 | 51.87376 | -0.37350 | 528 ft | 97 kts | 76° |
| 2026-04-30 10:25 | 51.87639 | -0.35993 | 743 ft | 145 kts | 71° |
| 2026-04-30 10:25 | 51.87951 | -0.34360 | 1490 ft | 152 kts | 81° |
| 2026-04-30 10:25 | 51.88210 | -0.32616 | 2253 ft | 169 kts | 78° |
| 2026-04-30 10:25 | 51.88547 | -0.30691 | 2702 ft | 191 kts | 80° |
| 2026-04-30 10:26 | 51.88936 | -0.28486 | 3171 ft | 223 kts | 79° |
| 2026-04-30 10:26 | 51.89350 | -0.25956 | 3686 ft | 238 kts | 85° |
| 2026-04-30 10:26 | 51.89318 | -0.23345 | 3939 ft | 235 kts | 106° |
| 2026-04-30 10:26 | 51.88661 | -0.20968 | 4007 ft | 233 kts | 126° |
| 2026-04-30 10:27 | 51.87489 | -0.19178 | 4014 ft | 234 kts | 145° |
| 2026-04-30 10:27 | 51.85962 | -0.18223 | 4001 ft | 239 kts | 166° |
| 2026-04-30 10:27 | 51.84279 | -0.18289 | 3995 ft | 249 kts | 186° |
| 2026-04-30 10:27 | 51.82670 | -0.19446 | 3991 ft | 261 kts | 209° |
| 2026-04-30 10:28 | 51.81438 | -0.21682 | 3992 ft | 277 kts | 235° |
| 2026-04-30 10:28 | 51.80921 | -0.24714 | 4332 ft | 287 kts | 264° |
| 2026-04-30 10:28 | 51.81302 | -0.27919 | 5375 ft | 297 kts | 291° |
| 2026-04-30 10:28 | 51.82285 | -0.30870 | 6516 ft | 299 kts | 295° |
| 2026-04-30 10:29 | 51.82823 | -0.34019 | 7473 ft | 295 kts | 266° |
| 2026-04-30 10:29 | 51.82516 | -0.37256 | 8444 ft | 292 kts | 251° |
| 2026-04-30 10:29 | 51.81977 | -0.40435 | 9392 ft | 296 kts | 249° |
| 2026-04-30 10:29 | 51.81420 | -0.43672 | 10304 ft | 301 kts | 250° |
| 2026-04-30 10:30 | 51.80873 | -0.46997 | 11003 ft | 314 kts | 252° |
| 2026-04-30 10:30 | 51.80561 | -0.49001 | 11355 ft | 322 kts | 252° |
| 2026-04-30 10:30 | 51.80033 | -0.52442 | 11955 ft | 335 kts | 252° |
| 2026-04-30 10:30 | 51.79469 | -0.56154 | 12649 ft | 344 kts | 253° |
| 2026-04-30 10:31 | 51.78898 | -0.59936 | 13495 ft | 349 kts | 253° |
| 2026-04-30 10:31 | 51.78417 | -0.63082 | 14189 ft | 353 kts | 253° |
| 2026-04-30 10:31 | 51.77913 | -0.66382 | 14863 ft | 356 kts | 253° |
| 2026-04-30 10:31 | 51.77313 | -0.70285 | 15664 ft | 360 kts | 253° |
| 2026-04-30 10:32 | 51.76911 | -0.72886 | 16178 ft | 362 kts | 252° |
| 2026-04-30 10:32 | 51.76549 | -0.75233 | 16648 ft | 364 kts | 252° |
| 2026-04-30 10:32 | 51.75659 | -0.79047 | 17423 ft | 362 kts | 236° |
| 2026-04-30 10:32 | 51.74148 | -0.82249 | 18192 ft | 358 kts | 222° |
| 2026-04-30 10:33 | 51.72401 | -0.85050 | 18906 ft | 360 kts | 219° |
| 2026-04-30 10:33 | 51.70589 | -0.87867 | 19564 ft | 365 kts | 219° |
| 2026-04-30 10:33 | 51.68759 | -0.90737 | 20213 ft | 369 kts | 220° |
| 2026-04-30 10:33 | 51.66920 | -0.93652 | 20842 ft | 373 kts | 220° |
| 2026-04-30 10:34 | 51.65067 | -0.96603 | 21483 ft | 377 kts | 220° |
| 2026-04-30 10:34 | 51.63201 | -0.99584 | 22136 ft | 380 kts | 219° |
| 2026-04-30 10:34 | 51.61314 | -1.02602 | 22780 ft | 384 kts | 219° |
| 2026-04-30 10:34 | 51.59413 | -1.05637 | 23401 ft | 387 kts | 219° |
| 2026-04-30 10:35 | 51.57515 | -1.08665 | 23965 ft | 391 kts | 219° |
| 2026-04-30 10:35 | 51.55575 | -1.11759 | 24490 ft | 395 kts | 219° |
| 2026-04-30 10:35 | 51.53621 | -1.14867 | 25021 ft | 397 kts | 219° |
| 2026-04-30 10:35 | 51.51644 | -1.17980 | 25541 ft | 398 kts | 217° |
| 2026-04-30 10:36 | 51.49408 | -1.20512 | 26044 ft | 391 kts | 202° |
| 2026-04-30 10:36 | 51.46889 | -1.22022 | 26544 ft | 384 kts | 188° |
| 2026-04-30 10:36 | 51.44257 | -1.22553 | 27044 ft | 381 kts | 179° |
| 2026-04-30 10:36 | 51.41907 | -1.22704 | 27484 ft | 382 kts | 178° |
| 2026-04-30 10:37 | 51.39330 | -1.22846 | 28079 ft | 381 kts | 178° |
| 2026-04-30 10:37 | 51.36696 | -1.23019 | 28793 ft | 377 kts | 178° |
| 2026-04-30 10:37 | 51.34087 | -1.23213 | 29469 ft | 374 kts | 179° |
| 2026-04-30 10:37 | 51.31489 | -1.23415 | 30027 ft | 374 kts | 179° |
| 2026-04-30 10:38 | 51.28895 | -1.23621 | 30519 ft | 373 kts | 179° |
| 2026-04-30 10:38 | 51.26297 | -1.23830 | 30941 ft | 373 kts | 179° |
| 2026-04-30 10:38 | 51.23699 | -1.24039 | 31201 ft | 374 kts | 179° |
| 2026-04-30 10:38 | 51.21110 | -1.24251 | 31245 ft | 373 kts | 179° |
| 2026-04-30 10:39 | 51.15998 | -1.25831 | 31218 ft | 380 kts | 190° |
| 2026-04-30 10:39 | 51.10895 | -1.28035 | 31207 ft | 380 kts | 190° |
| 2026-04-30 10:40 | 51.05798 | -1.30204 | 31202 ft | 380 kts | 190° |
| 2026-04-30 10:40 | 51.00686 | -1.32353 | 31201 ft | 379 kts | 190° |
| 2026-04-30 10:41 | 50.95652 | -1.34689 | 31201 ft | 383 kts | 198° |
| 2026-04-30 10:41 | 50.91025 | -1.39100 | 31205 ft | 391 kts | 208° |
| 2026-04-30 10:42 | 50.86506 | -1.43906 | 31213 ft | 392 kts | 209° |
| 2026-04-30 10:42 | 50.81930 | -1.48658 | 31203 ft | 394 kts | 208° |
| 2026-04-30 10:43 | 50.77381 | -1.53367 | 31200 ft | 394 kts | 208° |
| 2026-04-30 10:43 | 50.72796 | -1.58099 | 31200 ft | 394 kts | 208° |
| 2026-04-30 10:44 | 50.68212 | -1.62814 | 31196 ft | 393 kts | 208° |
| 2026-04-30 10:44 | 50.63626 | -1.67525 | 31199 ft | 393 kts | 208° |
| 2026-04-30 10:45 | 50.59060 | -1.72214 | 31187 ft | 395 kts | 209° |
| 2026-04-30 10:45 | 50.54449 | -1.76950 | 31181 ft | 396 kts | 208° |
| 2026-04-30 10:46 | 50.49836 | -1.81676 | 31180 ft | 396 kts | 209° |
| 2026-04-30 10:46 | 50.45206 | -1.86392 | 31175 ft | 403 kts | 209° |
| 2026-04-30 10:47 | 50.40410 | -1.91265 | 31184 ft | 424 kts | 209° |
| 2026-04-30 10:47 | 50.37900 | -1.93810 | 31183 ft | 435 kts | 210° |
| 2026-04-30 10:47 | 50.35334 | -1.96409 | 31181 ft | 443 kts | 210° |
| 2026-04-30 10:48 | 50.30163 | -2.01646 | 31161 ft | 443 kts | 210° |
| 2026-04-30 10:48 | 50.24845 | -2.06442 | 31146 ft | 438 kts | 198° |
| 2026-04-30 10:49 | 50.21960 | -2.07628 | 31146 ft | 433 kts | 185° |
| 2026-04-30 10:49 | 50.18967 | -2.08093 | 31147 ft | 434 kts | 182° |
| 2026-04-30 10:49 | 50.12968 | -2.08777 | 31145 ft | 428 kts | 182° |
| 2026-04-30 10:50 | 50.06977 | -2.09516 | 31141 ft | 434 kts | 183° |
| 2026-04-30 10:50 | 50.00979 | -2.10287 | 31138 ft | 430 kts | 182° |
| 2026-04-30 10:51 | 49.95069 | -2.12060 | 31137 ft | 437 kts | 194° |
| 2026-04-30 10:51 | 49.89292 | -2.14812 | 31124 ft | 438 kts | 194° |
| 2026-04-30 10:52 | 49.83463 | -2.17557 | 31112 ft | 438 kts | 194° |
| 2026-04-30 10:52 | 49.77668 | -2.20263 | 31113 ft | 438 kts | 194° |
| 2026-04-30 10:53 | 49.71853 | -2.22965 | 31112 ft | 437 kts | 194° |
| 2026-04-30 10:53 | 49.66034 | -2.25660 | 31122 ft | 437 kts | 194° |
| 2026-04-30 10:54 | 49.60243 | -2.28332 | 31112 ft | 434 kts | 194° |
| 2026-04-30 10:54 | 49.54451 | -2.31005 | 31112 ft | 434 kts | 194° |
| 2026-04-30 10:55 | 49.48664 | -2.33669 | 31097 ft | 432 kts | 193° |
| 2026-04-30 10:55 | 49.42953 | -2.36287 | 31089 ft | 431 kts | 193° |
| 2026-04-30 10:56 | 49.37203 | -2.38915 | 31087 ft | 431 kts | 193° |
| 2026-04-30 10:56 | 49.31452 | -2.41540 | 31085 ft | 431 kts | 193° |
| 2026-04-30 10:57 | 49.25695 | -2.44162 | 31087 ft | 432 kts | 193° |
| 2026-04-30 10:57 | 49.19975 | -2.46761 | 31068 ft | 432 kts | 193° |
| 2026-04-30 10:58 | 49.14217 | -2.49368 | 31068 ft | 432 kts | 193° |
| 2026-04-30 10:58 | 49.08460 | -2.51971 | 31071 ft | 432 kts | 193° |
| 2026-04-30 10:59 | 49.02701 | -2.54569 | 31068 ft | 431 kts | 193° |
| 2026-04-30 10:59 | 48.96989 | -2.57133 | 31074 ft | 431 kts | 193° |
| 2026-04-30 11:00 | 48.91247 | -2.59709 | 31083 ft | 430 kts | 193° |
| 2026-04-30 11:00 | 48.85497 | -2.62282 | 31070 ft | 431 kts | 193° |
| 2026-04-30 11:01 | 48.79782 | -2.64835 | 31066 ft | 427 kts | 193° |
| 2026-04-30 11:01 | 48.74115 | -2.67359 | 31059 ft | 427 kts | 193° |
| 2026-04-30 11:02 | 48.68409 | -2.69897 | 31052 ft | 427 kts | 193° |
| 2026-04-30 11:02 | 48.62702 | -2.72430 | 31048 ft | 427 kts | 193° |
| 2026-04-30 11:03 | 48.56992 | -2.74955 | 31045 ft | 428 kts | 193° |
| 2026-04-30 11:04 | 48.48461 | -2.78719 | 31044 ft | 428 kts | 193° |
| 2026-04-30 11:04 | 48.42749 | -2.81233 | 31039 ft | 428 kts | 193° |
| 2026-04-30 11:05 | 48.37036 | -2.83737 | 31045 ft | 428 kts | 193° |
| 2026-04-30 11:05 | 48.31321 | -2.86241 | 31036 ft | 428 kts | 193° |
| 2026-04-30 11:06 | 48.25640 | -2.88723 | 31026 ft | 428 kts | 193° |
| 2026-04-30 11:06 | 48.19921 | -2.91210 | 31033 ft | 428 kts | 193° |
| 2026-04-30 11:07 | 48.14200 | -2.93699 | 31029 ft | 429 kts | 193° |
| 2026-04-30 11:07 | 48.08474 | -2.96182 | 31028 ft | 429 kts | 193° |
| 2026-04-30 11:08 | 48.02781 | -2.98646 | 31030 ft | 428 kts | 193° |
| 2026-04-30 11:08 | 47.97061 | -3.01116 | 31026 ft | 428 kts | 193° |
| 2026-04-30 11:09 | 47.91316 | -3.03588 | 31025 ft | 430 kts | 193° |
| 2026-04-30 11:09 | 47.85561 | -3.06061 | 31018 ft | 430 kts | 193° |
| 2026-04-30 11:10 | 47.79843 | -3.08516 | 31036 ft | 430 kts | 193° |
| 2026-04-30 11:10 | 47.74083 | -3.10979 | 31042 ft | 431 kts | 193° |
| 2026-04-30 11:11 | 47.68310 | -3.13442 | 31041 ft | 432 kts | 193° |
| 2026-04-30 11:11 | 47.62536 | -3.15900 | 31040 ft | 432 kts | 193° |
| 2026-04-30 11:12 | 47.56795 | -3.18338 | 31036 ft | 432 kts | 193° |
| 2026-04-30 11:12 | 47.51019 | -3.20783 | 31033 ft | 432 kts | 193° |
| 2026-04-30 11:13 | 47.45240 | -3.23228 | 31033 ft | 432 kts | 193° |
| 2026-04-30 11:13 | 47.39460 | -3.25665 | 31029 ft | 432 kts | 193° |
| 2026-04-30 11:14 | 47.33716 | -3.28084 | 31043 ft | 432 kts | 193° |
| 2026-04-30 11:14 | 47.27914 | -3.30521 | 31039 ft | 434 kts | 193° |
| 2026-04-30 11:15 | 47.22125 | -3.32947 | 31043 ft | 432 kts | 193° |
| 2026-04-30 11:15 | 47.16345 | -3.35360 | 31042 ft | 432 kts | 193° |
| 2026-04-30 11:16 | 47.11538 | -3.37368 | 31043 ft | 432 kts | 193° |
| 2026-04-30 11:16 | 47.04804 | -3.40170 | 31045 ft | 433 kts | 193° |
| 2026-04-30 11:17 | 46.99986 | -3.42167 | 31046 ft | 433 kts | 193° |
| 2026-04-30 11:17 | 46.94189 | -3.44568 | 31045 ft | 433 kts | 193° |
| 2026-04-30 11:18 | 46.87439 | -3.47356 | 31047 ft | 435 kts | 193° |
| 2026-04-30 11:18 | 46.79645 | -3.50575 | 31046 ft | 435 kts | 193° |
| 2026-04-30 11:19 | 46.73858 | -3.52954 | 31049 ft | 435 kts | 193° |
| 2026-04-30 11:19 | 46.68028 | -3.55348 | 31051 ft | 435 kts | 193° |
| 2026-04-30 11:20 | 46.62203 | -3.57734 | 31050 ft | 435 kts | 193° |
| 2026-04-30 11:20 | 46.56409 | -3.60101 | 31050 ft | 435 kts | 193° |
| 2026-04-30 11:21 | 46.50578 | -3.62477 | 31058 ft | 436 kts | 193° |
| 2026-04-30 11:21 | 46.44719 | -3.64859 | 31058 ft | 438 kts | 194° |
| 2026-04-30 11:22 | 46.38843 | -3.67243 | 31060 ft | 438 kts | 194° |
| 2026-04-30 11:22 | 46.31997 | -3.69886 | 31055 ft | 437 kts | 188° |
| 2026-04-30 11:23 | 46.26969 | -3.70746 | 31065 ft | 440 kts | 185° |
| 2026-04-30 11:24 | 46.17827 | -3.72070 | 31060 ft | 440 kts | 185° |
| 2026-04-30 11:24 | 46.11729 | -3.72982 | 31058 ft | 441 kts | 185° |
| 2026-04-30 11:25 | 46.02613 | -3.74337 | 31065 ft | 442 kts | 185° |
| 2026-04-30 11:26 | 45.90409 | -3.76139 | 31071 ft | 442 kts | 185° |
| 2026-04-30 11:26 | 45.84277 | -3.77046 | 31075 ft | 447 kts | 185° |
| 2026-04-30 11:27 | 45.78089 | -3.77955 | 31073 ft | 447 kts | 185° |
| 2026-04-30 11:27 | 45.71897 | -3.78864 | 31073 ft | 447 kts | 185° |
| 2026-04-30 11:28 | 45.62504 | -3.80245 | 31080 ft | 455 kts | 186° |
| 2026-04-30 11:29 | 45.56263 | -3.81152 | 31083 ft | 454 kts | 186° |
| 2026-04-30 11:29 | 45.46798 | -3.82531 | 31083 ft | 457 kts | 186° |
| 2026-04-30 11:30 | 45.37287 | -3.83909 | 31084 ft | 458 kts | 186° |
| 2026-04-30 11:31 | 45.30991 | -3.84820 | 31081 ft | 459 kts | 187° |
| 2026-04-30 11:31 | 45.24622 | -3.85737 | 31083 ft | 461 kts | 187° |
| 2026-04-30 11:32 | 45.18247 | -3.86653 | 31078 ft | 460 kts | 188° |
| 2026-04-30 11:32 | 45.11873 | -3.87568 | 31084 ft | 460 kts | 188° |
| 2026-04-30 11:33 | 45.02344 | -3.88935 | 31087 ft | 461 kts | 188° |
| 2026-04-30 11:33 | 44.95966 | -3.89852 | 31087 ft | 461 kts | 188° |
| 2026-04-30 11:34 | 44.89589 | -3.90761 | 31086 ft | 461 kts | 188° |
| 2026-04-30 11:34 | 44.83211 | -3.91669 | 31088 ft | 461 kts | 188° |
| 2026-04-30 11:35 | 44.76879 | -3.92566 | 31092 ft | 461 kts | 188° |
| 2026-04-30 11:35 | 44.70495 | -3.93471 | 31092 ft | 461 kts | 188° |
| 2026-04-30 11:36 | 44.64121 | -3.94369 | 31095 ft | 460 kts | 188° |
| 2026-04-30 11:36 | 44.57741 | -3.95268 | 31093 ft | 461 kts | 188° |
| 2026-04-30 11:37 | 44.51420 | -3.96156 | 31091 ft | 458 kts | 188° |
| 2026-04-30 11:37 | 44.45073 | -3.97051 | 31098 ft | 458 kts | 188° |
| 2026-04-30 11:38 | 44.38724 | -3.97932 | 31103 ft | 458 kts | 188° |
| 2026-04-30 11:38 | 44.32364 | -3.97137 | 31096 ft | 467 kts | 164° |
| 2026-04-30 11:39 | 44.29443 | -3.95221 | 31020 ft | 460 kts | 149° |
| 2026-04-30 11:39 | 44.26919 | -3.92696 | 30842 ft | 445 kts | 144° |
| 2026-04-30 11:39 | 44.24509 | -3.90103 | 30624 ft | 431 kts | 144° |
| 2026-04-30 11:39 | 44.22164 | -3.87590 | 30386 ft | 418 kts | 144° |
| 2026-04-30 11:40 | 44.19874 | -3.85168 | 30132 ft | 412 kts | 144° |
| 2026-04-30 11:40 | 44.17583 | -3.82769 | 29855 ft | 412 kts | 145° |
| 2026-04-30 11:40 | 44.15278 | -3.80368 | 29574 ft | 415 kts | 145° |
| 2026-04-30 11:40 | 44.12967 | -3.77962 | 29297 ft | 415 kts | 145° |
| 2026-04-30 11:41 | 44.10665 | -3.75567 | 28911 ft | 412 kts | 145° |
| 2026-04-30 11:41 | 44.08407 | -3.73223 | 28427 ft | 409 kts | 145° |
| 2026-04-30 11:41 | 44.06138 | -3.70867 | 27901 ft | 406 kts | 145° |
| 2026-04-30 11:41 | 44.03875 | -3.68523 | 27383 ft | 405 kts | 145° |
| 2026-04-30 11:42 | 44.01623 | -3.66190 | 26846 ft | 403 kts | 145° |
| 2026-04-30 11:42 | 43.99379 | -3.63868 | 26312 ft | 402 kts | 145° |
| 2026-04-30 11:42 | 43.97139 | -3.61555 | 25784 ft | 400 kts | 144° |
| 2026-04-30 11:42 | 43.94912 | -3.59251 | 25300 ft | 398 kts | 145° |
| 2026-04-30 11:43 | 43.92695 | -3.56963 | 24796 ft | 397 kts | 145° |
| 2026-04-30 11:43 | 43.90515 | -3.54717 | 24296 ft | 396 kts | 145° |
| 2026-04-30 11:43 | 43.88306 | -3.52445 | 23792 ft | 395 kts | 145° |
| 2026-04-30 11:43 | 43.86102 | -3.50177 | 23218 ft | 394 kts | 145° |
| 2026-04-30 11:44 | 43.83908 | -3.47924 | 22659 ft | 392 kts | 145° |
| 2026-04-30 11:44 | 43.81724 | -3.45683 | 22115 ft | 390 kts | 145° |
| 2026-04-30 11:44 | 43.79549 | -3.43454 | 21581 ft | 387 kts | 145° |
| 2026-04-30 11:44 | 43.77396 | -3.41246 | 21058 ft | 383 kts | 145° |
| 2026-04-30 11:45 | 43.75271 | -3.39064 | 20562 ft | 379 kts | 145° |
| 2026-04-30 11:45 | 43.73191 | -3.36933 | 20099 ft | 374 kts | 145° |
| 2026-04-30 11:45 | 43.71114 | -3.34812 | 19631 ft | 370 kts | 145° |
| 2026-04-30 11:45 | 43.69057 | -3.32711 | 19171 ft | 365 kts | 145° |
| 2026-04-30 11:46 | 43.67034 | -3.30611 | 18724 ft | 363 kts | 140° |
| 2026-04-30 11:46 | 43.65394 | -3.27989 | 18275 ft | 362 kts | 124° |
| 2026-04-30 11:46 | 43.64047 | -3.25054 | 17772 ft | 361 kts | 121° |
| 2026-04-30 11:46 | 43.62763 | -3.22083 | 17274 ft | 359 kts | 120° |
| 2026-04-30 11:47 | 43.61497 | -3.19123 | 16787 ft | 358 kts | 120° |
| 2026-04-30 11:47 | 43.60250 | -3.16205 | 16304 ft | 356 kts | 120° |
| 2026-04-30 11:47 | 43.58996 | -3.13274 | 15830 ft | 354 kts | 120° |
| 2026-04-30 11:47 | 43.57752 | -3.10358 | 15340 ft | 352 kts | 120° |
| 2026-04-30 11:48 | 43.56519 | -3.07456 | 14878 ft | 350 kts | 120° |
| 2026-04-30 11:48 | 43.55295 | -3.04577 | 14425 ft | 348 kts | 121° |
| 2026-04-30 11:48 | 43.54080 | -3.01707 | 13976 ft | 345 kts | 120° |
| 2026-04-30 11:48 | 43.52873 | -2.98856 | 13480 ft | 343 kts | 120° |
| 2026-04-30 11:49 | 43.51675 | -2.96018 | 12976 ft | 341 kts | 120° |
| 2026-04-30 11:49 | 43.50490 | -2.93202 | 12482 ft | 339 kts | 120° |
| 2026-04-30 11:49 | 43.49315 | -2.90393 | 11995 ft | 337 kts | 120° |
| 2026-04-30 11:49 | 43.48168 | -2.87637 | 11526 ft | 335 kts | 121° |
| 2026-04-30 11:50 | 43.47020 | -2.84855 | 11053 ft | 334 kts | 121° |
| 2026-04-30 11:50 | 43.45883 | -2.82087 | 10589 ft | 330 kts | 121° |
| 2026-04-30 11:50 | 43.44769 | -2.79359 | 10146 ft | 324 kts | 120° |
| 2026-04-30 11:50 | 43.43675 | -2.76684 | 9652 ft | 318 kts | 121° |
| 2026-04-30 11:51 | 43.42603 | -2.74046 | 9152 ft | 313 kts | 120° |
| 2026-04-30 11:51 | 43.41547 | -2.71442 | 8667 ft | 310 kts | 121° |
| 2026-04-30 11:51 | 43.40524 | -2.68897 | 8190 ft | 306 kts | 121° |
| 2026-04-30 11:51 | 43.39372 | -2.66472 | 7703 ft | 301 kts | 132° |
| 2026-04-30 11:52 | 43.38007 | -2.64361 | 7189 ft | 289 kts | 135° |
| 2026-04-30 11:52 | 43.36657 | -2.62389 | 6752 ft | 277 kts | 135° |
| 2026-04-30 11:52 | 43.35343 | -2.60490 | 6341 ft | 273 kts | 135° |
| 2026-04-30 11:52 | 43.34032 | -2.58607 | 5926 ft | 272 kts | 135° |
| 2026-04-30 11:53 | 43.32730 | -2.56723 | 5514 ft | 271 kts | 136° |
| 2026-04-30 11:53 | 43.31443 | -2.54838 | 5113 ft | 272 kts | 135° |
| 2026-04-30 11:53 | 43.30176 | -2.52978 | 4759 ft | 268 kts | 135° |
| 2026-04-30 11:53 | 43.28764 | -2.51392 | 4437 ft | 257 kts | 155° |
| 2026-04-30 11:54 | 43.27196 | -2.50413 | 4355 ft | 238 kts | 160° |
| 2026-04-30 11:54 | 43.25708 | -2.49637 | 4353 ft | 219 kts | 171° |
| 2026-04-30 11:54 | 43.24255 | -2.49439 | 4360 ft | 201 kts | 180° |
| 2026-04-30 11:54 | 43.22866 | -2.49758 | 4361 ft | 206 kts | 208° |
| 2026-04-30 11:55 | 43.21776 | -2.50973 | 4403 ft | 203 kts | 228° |
| 2026-04-30 11:55 | 43.21043 | -2.52612 | 4409 ft | 204 kts | 248° |
| 2026-04-30 11:55 | 43.20569 | -2.54432 | 4408 ft | 205 kts | 250° |
| 2026-04-30 11:55 | 43.20116 | -2.56296 | 4414 ft | 208 kts | 250° |
| 2026-04-30 11:56 | 43.19669 | -2.58144 | 4399 ft | 201 kts | 251° |
| 2026-04-30 11:56 | 43.19302 | -2.59919 | 4389 ft | 193 kts | 265° |
| 2026-04-30 11:56 | 43.19480 | -2.61680 | 4416 ft | 176 kts | 284° |
| 2026-04-30 11:56 | 43.19915 | -2.63160 | 4425 ft | 159 kts | 291° |
| 2026-04-30 11:57 | 43.20369 | -2.64471 | 4406 ft | 150 kts | 293° |
| 2026-04-30 11:57 | 43.20803 | -2.65671 | 4375 ft | 134 kts | 292° |
| 2026-04-30 11:57 | 43.21213 | -2.66798 | 4263 ft | 133 kts | 292° |
| 2026-04-30 11:57 | 43.21628 | -2.67931 | 4102 ft | 134 kts | 294° |
| 2026-04-30 11:58 | 43.22045 | -2.69067 | 3928 ft | 133 kts | 294° |
| 2026-04-30 11:58 | 43.22463 | -2.70207 | 3728 ft | 134 kts | 296° |
| 2026-04-30 11:58 | 43.22880 | -2.71344 | 3529 ft | 133 kts | 296° |
| 2026-04-30 11:58 | 43.23295 | -2.72475 | 3328 ft | 132 kts | 296° |
| 2026-04-30 11:59 | 43.23707 | -2.73598 | 3127 ft | 132 kts | 296° |
| 2026-04-30 11:59 | 43.24121 | -2.74726 | 2927 ft | 132 kts | 297° |
| 2026-04-30 11:59 | 43.24535 | -2.75854 | 2728 ft | 132 kts | 297° |
| 2026-04-30 11:59 | 43.24941 | -2.76960 | 2526 ft | 130 kts | 298° |
| 2026-04-30 12:00 | 43.25345 | -2.78065 | 2340 ft | 129 kts | 298° |
| 2026-04-30 12:00 | 43.25747 | -2.79161 | 2145 ft | 129 kts | 299° |
| 2026-04-30 12:00 | 43.26153 | -2.80268 | 1951 ft | 130 kts | 299° |
| 2026-04-30 12:00 | 43.26561 | -2.81383 | 1751 ft | 131 kts | 298° |
| 2026-04-30 12:01 | 43.26967 | -2.82488 | 1539 ft | 130 kts | 299° |
| 2026-04-30 12:01 | 43.27375 | -2.83602 | 1348 ft | 131 kts | 299° |
| 2026-04-30 12:01 | 43.27777 | -2.84703 | 1142 ft | 128 kts | 300° |
| 2026-04-30 12:01 | 43.28172 | -2.85777 | 915 ft | 127 kts | 300° |
| 2026-04-30 12:02 | 43.28588 | -2.86857 | 751 ft | 128 kts | 299° |
| 2026-04-30 12:02 | 43.28970 | -2.87944 | 555 ft | 122 kts | 297° |
| 2026-04-30 12:02 | 43.29351 | -2.88991 | 332 ft | 124 kts | 297° |
| 2026-04-30 12:02 | 43.29735 | -2.90028 | 153 ft | 121 kts | 296° |
| 2026-04-30 12:03 | 43.30066 | -2.90944 | 133 ft | 87 kts | 296° |
| 2026-04-30 12:03 | 43.30267 | -2.91488 | 133 ft | 16 kts | 298° |
| 2026-04-30 12:03 | 43.30327 | -2.91647 | 133 ft | 20 kts | 296° |
| 2026-04-30 12:04 | 43.30395 | -2.91819 | 133 ft | 22 kts | 317° |
| 2026-04-30 12:04 | 43.30507 | -2.91973 | 133 ft | 24 kts | 323° |
| 2026-04-30 12:04 | 43.30623 | -2.92028 | 134 ft | 18 kts | 63° |
| 2026-04-30 12:04 | 43.30595 | -2.91865 | 134 ft | 19 kts | 121° |
| 2026-04-30 12:05 | 43.30529 | -2.91693 | 134 ft | 21 kts | 115° |
| 2026-04-30 12:05 | 43.30458 | -2.91502 | 134 ft | 23 kts | 117° |
| 2026-04-30 12:05 | 43.30382 | -2.91296 | 134 ft | 25 kts | 121° |
| 2026-04-30 12:05 | 43.30315 | -2.91107 | 134 ft | 16 kts | 113° |
| 2026-04-30 12:06 | 43.30364 | -2.91001 | 133 ft | 15 kts | 35° |
| 2026-04-30 12:06 | 43.30403 | -2.90920 | 133 ft | 12 kts | 86° |
| 2026-04-30 12:06 | 43.30449 | -2.90890 | 133 ft | 7 kts | 359° |
| 2026-04-30 12:06 | 43.30469 | -2.90891 | 133 ft | 1 kts | 357° |
| 2026-04-30 12:07 | 43.30479 | -2.90892 | 133 ft | 0 kts | 356° |